aviador You're here:

LFRQ Decoded Metar

QUIMPER in FRANCE
Report Time2017-08-21 13:30:00
UTC Time2017-08-21 13:47:54
Flight Rules mvfr MVFR
Wind180° at 05 kt
W.Decomp.*RWY 10: 0.6 kt HW 5.0 kt RCW
W.Rank180° ranks 22
Current wind is below 180° avg. (7.0)
Visibility9999 m
Phenomena:N/A
Clouds:Broken 028 Hf
Expected CloudBase > 2,800 ft AGL from Temp-Dew spread
Ceiling2,800 ft
Temp25°C (ISA +11)
Dew Point18°C (65% RH)
QNH1021 hPa
Density Alt1,542 ft
Elevation308 ft
Report Wrong Elevation
Raw Report
LFRQ 211330Z AUTO 18005KT 130V250 9999 BKN028 25/18 Q1021
NOSIG=

Extra information for LFRQ:More info

Metar Taf Metar & Taf Last 4 Metars F.Rules Stats Wind Profile Meteogram Temp Stats Airport Information Weather charts Add Link Nearby VenuesMetar ALERT Operation Metar Decoded Social comments